Language selection

Weather shortcuts

Lake of the Woods: Past 24 Hour Conditions

 

Kenora Airport

12:00 PM CDT 14 June 2024
Disclaimer

This table is a summary of hourly weather conditions for the past 24 hours.
Please note that these observations might not always be representative of weather conditions over their associated marine area.

Date / Time
(CDT)
Wind(knots) Conditions Visibility(km) Pressure(kPa) Air tempC) Relative humidity(%) Dew pointC) Humidex
14 June 2024
12:00 W 4 Partly Cloudy 24 101.7 20 48 9 21
11:00 W 8 Partly Cloudy 32 101.8 21 48 9 *
10:00 WSW 4 Partly Cloudy 32 101.8 19 54 10 *
9:00 SW 3 Partly Cloudy 32 101.8 18 68 12 *
8:00 SW 2 Partly Cloudy 32 101.7 17 69 11 *
7:00 N 1 Partly Cloudy 32 101.7 14 88 12 *
6:00 calm Partly Cloudy 32 101.7 11 97 11 *
5:00 SW 3 Partly Cloudy 32 101.6 12 87 10 *
4:00 ESE 2 Partly Cloudy 32 101.6 12 82 9 *
3:00 W 3 Mostly Cloudy 32 101.6 14 65 8 *
2:00 W 5 Partly Cloudy 32 101.6 16 60 8 *
1:00 W 3 Mainly Clear 32 101.5 14 64 8 *
0:00 NNW 2 Clear 32 101.5 15 63 8 *
13 June 2024
23:00 NNW 2 Clear 32 101.5 16 63 9 *
22:00 N 2 Mainly Clear 32 101.4 17 54 7 *
21:00 N 3 Mainly Sunny 32 101.3 18 50 8 *
20:00 NNE 5 Mainly Sunny 32 101.3 20 44 7 *
19:00 NNW 6 Partly Cloudy 32 101.3 20 46 8 21
18:00 N 6 Partly Cloudy 32 101.2 19 48 8 *
17:00 N 7 Partly Cloudy 32 101.2 21 46 9 22
16:00 NNE 9 Partly Cloudy 24 101.1 20 49 9 *
15:00 NNW 7 Mostly Cloudy 24 101.1 18 67 11 *
14:00 NNW 9 gusts 20 Light Rainshower 24 101.1 15 84 12 *
13:00 NW 8 Mostly Cloudy 32 101.0 16 79 12 *
12:00 NW 8 Mostly Cloudy 24 100.9 15 79 12 *

Zoom-in to make a selection

Map of Great Lakes - Lake Superior marine weather areas Mid Superior - 45001 East Superior - 45004 West Superior - 45006 Slate Island - 45136 Lake Of the Woods - 45148 Kenora Airport Royal Island Armstrong Airport Caribou Island Marathon Airport Pukaskwa National Park Thunder Bay Airport Welcome Island Little Flatland Island Sault Ste. Marie Airport Wawa Airport
Legend:
buoy Buoy
land station Land Station

Great Lakes - Lake Superior Area

Another Region

Features

New Predicting and Alerting Coastal Flooding Program

Find out about coastal flooding coverage, forecasts and warnings in your region

Date modified: